createdAt,value
2023-05-14T00:01:14.046Z,19.65
2023-05-14T00:03:42.057Z,16.55
2023-05-14T00:06:12.175Z,17.85
2023-05-14T00:08:40.356Z,18.75
2023-05-14T00:11:09.682Z,21.17
2023-05-14T00:13:37.861Z,20.95
2023-05-14T00:16:06.601Z,19.48
2023-05-14T00:18:34.544Z,20.83
2023-05-14T00:21:02.835Z,21.50
2023-05-14T00:23:32.333Z,19.00
2023-05-14T00:26:00.564Z,23.48
2023-05-14T00:28:28.572Z,20.80
2023-05-14T00:30:57.351Z,18.40
2023-05-14T00:33:25.711Z,23.85
2023-05-14T00:35:54.241Z,20.35
2023-05-14T00:38:24.309Z,20.88
2023-05-14T00:40:53.841Z,26.20
2023-05-14T00:43:24.344Z,22.77
2023-05-14T00:45:53.943Z,21.17
2023-05-14T00:48:23.071Z,18.58
2023-05-14T00:50:53.150Z,18.48
2023-05-14T00:53:22.242Z,17.50
2023-05-14T00:55:51.177Z,18.02
2023-05-14T00:58:21.322Z,17.45
2023-05-14T01:00:50.185Z,20.02
2023-05-14T01:03:18.363Z,25.13
2023-05-14T01:05:58.670Z,19.20
2023-05-14T01:08:34.172Z,21.90
2023-05-14T01:11:08.215Z,18.63
2023-05-14T01:13:55.373Z,26.70
2023-05-14T01:16:28.332Z,20.58
2023-05-14T01:18:58.415Z,20.20
2023-05-14T01:21:37.682Z,19.42
2023-05-14T01:24:06.387Z,22.83
2023-05-14T01:26:34.835Z,25.10
2023-05-14T01:29:12.530Z,22.52
2023-05-14T01:31:44.391Z,17.92
2023-05-14T01:34:13.849Z,25.73
2023-05-14T01:36:45.621Z,22.90
2023-05-14T01:39:16.806Z,19.40
2023-05-14T01:41:46.390Z,20.20
2023-05-14T01:44:14.565Z,18.98
2023-05-14T01:46:42.954Z,16.45
2023-05-14T01:49:11.044Z,20.20
2023-05-14T01:51:39.295Z,20.33
2023-05-14T01:54:08.842Z,19.38
2023-05-14T01:56:37.028Z,21.95
2023-05-14T01:59:05.363Z,20.27
2023-05-14T02:01:34.173Z,17.85
2023-05-14T02:04:02.779Z,24.48
2023-05-14T02:06:31.706Z,19.02
2023-05-14T02:08:59.821Z,18.30
2023-05-14T02:11:29.222Z,22.45
2023-05-14T02:13:57.194Z,22.25
2023-05-14T02:16:25.906Z,21.83
2023-05-14T02:18:54.685Z,18.02
2023-05-14T02:21:23.225Z,17.13
2023-05-14T02:23:51.636Z,21.13
2023-05-14T02:26:20.306Z,19.45
2023-05-14T02:28:49.916Z,23.92
2023-05-14T02:31:19.576Z,17.10
2023-05-14T02:33:47.978Z,19.33
2023-05-14T02:36:16.127Z,22.15
2023-05-14T02:38:44.748Z,23.63
2023-05-14T02:41:12.886Z,16.98
2023-05-14T02:43:41.382Z,18.55
2023-05-14T02:46:10.911Z,20.42
2023-05-14T02:48:39.050Z,21.42
2023-05-14T02:51:09.514Z,31.17
2023-05-14T02:53:37.569Z,24.13
2023-05-14T02:56:06.828Z,25.95
2023-05-14T02:58:35.693Z,19.20
2023-05-14T03:01:04.079Z,21.73
2023-05-14T03:03:34.370Z,24.67
2023-05-14T03:06:02.850Z,18.58
2023-05-14T03:08:31.899Z,15.73
2023-05-14T03:11:00.192Z,17.45
2023-05-14T03:13:28.506Z,25.77
2023-05-14T03:15:58.152Z,17.92
2023-05-14T03:18:28.694Z,20.00
2023-05-14T03:20:58.432Z,20.80
2023-05-14T03:23:31.210Z,26.70
2023-05-14T03:25:59.505Z,20.92
2023-05-14T03:28:27.728Z,24.02
2023-05-14T03:30:55.968Z,24.80
2023-05-14T03:33:25.053Z,18.98
2023-05-14T03:35:53.717Z,25.67
2023-05-14T03:38:24.228Z,19.88
2023-05-14T03:40:52.782Z,23.80
2023-05-14T03:43:20.900Z,22.83
2023-05-14T03:45:52.706Z,27.17
2023-05-14T03:48:21.473Z,23.30
2023-05-14T03:50:50.053Z,21.48
2023-05-14T03:53:18.398Z,23.35
2023-05-14T03:55:49.203Z,25.25
2023-05-14T03:58:19.767Z,25.50
2023-05-14T04:00:47.815Z,20.40
2023-05-14T04:03:16.354Z,24.30
2023-05-14T04:05:44.486Z,22.25
2023-05-14T04:08:12.814Z,24.15
2023-05-14T04:10:40.866Z,25.17
2023-05-14T04:13:11.273Z,25.20
2023-05-14T04:15:41.311Z,25.27
2023-05-14T04:18:09.337Z,25.27
2023-05-14T04:20:38.052Z,24.58
2023-05-14T04:23:06.680Z,26.38
2023-05-14T04:25:34.873Z,26.27
2023-05-14T04:28:02.965Z,25.88
2023-05-14T04:30:32.895Z,26.17
2023-05-14T04:33:01.416Z,25.52
2023-05-14T04:35:29.881Z,22.75
2023-05-14T04:37:58.676Z,28.85
2023-05-14T04:40:27.084Z,25.90
2023-05-14T04:42:55.722Z,27.20
2023-05-14T04:45:24.003Z,30.20
2023-05-14T04:47:54.243Z,23.48
2023-05-14T04:50:26.907Z,29.35
2023-05-14T04:52:55.915Z,23.70
2023-05-14T04:55:24.318Z,22.35
2023-05-14T04:57:52.899Z,24.02
2023-05-14T05:00:22.477Z,34.83
2023-05-14T05:02:50.841Z,25.05
2023-05-14T05:05:20.768Z,20.10
2023-05-14T05:07:49.226Z,25.65
2023-05-14T05:10:17.655Z,20.20
2023-05-14T05:12:45.700Z,21.52
2023-05-14T05:15:14.152Z,21.42
2023-05-14T05:17:43.050Z,24.73
2023-05-14T05:20:12.253Z,24.05
2023-05-14T05:22:41.672Z,22.30
2023-05-14T05:25:12.491Z,20.15
2023-05-14T05:27:40.757Z,22.83
2023-05-14T05:30:10.118Z,23.58
2023-05-14T05:32:39.081Z,23.20
2023-05-14T05:35:08.445Z,23.08
2023-05-14T05:37:36.971Z,30.20
2023-05-14T05:40:09.268Z,20.83
2023-05-14T05:42:37.486Z,27.35
2023-05-14T05:45:07.585Z,23.27
2023-05-14T05:47:35.700Z,19.88
2023-05-14T05:50:03.952Z,22.73
2023-05-14T05:52:32.455Z,23.38
2023-05-14T05:55:01.410Z,17.30
2023-05-14T05:57:31.109Z,23.90
2023-05-14T05:59:59.310Z,19.73
2023-05-14T06:02:27.669Z,17.60
2023-05-14T06:04:55.991Z,21.52
2023-05-14T06:07:24.425Z,19.17
2023-05-14T06:09:52.644Z,19.73
2023-05-14T06:12:21.941Z,20.85
2023-05-14T06:14:51.625Z,19.25
2023-05-14T06:17:19.836Z,15.77
2023-05-14T06:19:48.250Z,18.52
2023-05-14T06:22:16.475Z,16.67
2023-05-14T06:24:45.028Z,18.58
2023-05-14T06:27:13.490Z,15.65
2023-05-14T06:29:41.917Z,17.17
2023-05-14T06:32:15.941Z,12.88
2023-05-14T06:34:44.498Z,12.65
2023-05-14T06:37:12.825Z,12.63
2023-05-14T06:39:46.978Z,11.05
2023-05-14T06:42:15.927Z,13.60
2023-05-14T06:44:44.619Z,11.38
2023-05-14T06:47:14.266Z,10.68
2023-05-14T06:49:46.035Z,12.30
2023-05-14T06:52:14.252Z,13.80
2023-05-14T06:54:42.351Z,11.50
2023-05-14T06:57:10.917Z,14.95
2023-05-14T06:59:39.337Z,12.40
2023-05-14T07:02:08.737Z,12.30
2023-05-14T07:04:38.638Z,11.60
2023-05-14T07:07:07.153Z,10.10
2023-05-14T07:09:35.273Z,11.20
2023-05-14T07:12:03.723Z,10.85
2023-05-14T07:14:32.776Z,12.88
2023-05-14T07:17:01.691Z,9.48
2023-05-14T07:19:30.377Z,12.70
2023-05-14T07:22:00.388Z,9.73
2023-05-14T07:24:29.015Z,10.95
2023-05-14T07:26:57.784Z,9.35
2023-05-14T07:29:26.174Z,16.42
2023-05-14T07:31:54.404Z,12.38
2023-05-14T07:34:25.888Z,9.25
2023-05-14T07:36:54.592Z,12.05
2023-05-14T07:39:24.199Z,10.02
2023-05-14T07:41:54.814Z,9.40
2023-05-14T07:44:22.795Z,9.60
2023-05-14T07:46:50.789Z,9.80
2023-05-14T07:49:19.155Z,12.15
2023-05-14T07:51:47.700Z,10.65
2023-05-14T07:54:16.306Z,8.70
2023-05-14T07:56:46.138Z,8.52
2023-05-14T07:59:14.391Z,11.40
2023-05-14T08:01:43.157Z,12.30
2023-05-14T08:04:12.299Z,11.07
2023-05-14T08:06:40.951Z,8.68
2023-05-14T08:09:09.841Z,12.57
2023-05-14T08:11:39.233Z,11.05
2023-05-14T08:14:09.148Z,10.82
2023-05-14T08:16:37.389Z,12.05
2023-05-14T08:19:06.376Z,9.45
2023-05-14T08:21:34.900Z,9.93
2023-05-14T08:24:03.258Z,10.70
2023-05-14T08:26:31.501Z,8.10
2023-05-14T08:29:00.320Z,7.88
2023-05-14T08:31:30.147Z,8.85
2023-05-14T08:33:58.631Z,9.20
2023-05-14T08:36:27.296Z,6.22
2023-05-14T08:38:56.698Z,7.65
2023-05-14T08:41:25.070Z,9.55
2023-05-14T08:44:04.234Z,9.05
2023-05-14T08:46:35.040Z,8.15
2023-05-14T08:49:12.871Z,9.63
2023-05-14T08:51:41.529Z,11.32
2023-05-14T08:54:10.100Z,9.95
2023-05-14T08:56:40.230Z,8.52
2023-05-14T08:59:08.432Z,8.18
2023-05-14T09:01:39.889Z,8.50
2023-05-14T09:04:09.712Z,6.35
2023-05-14T09:06:38.963Z,7.82
2023-05-14T09:09:07.274Z,8.40
2023-05-14T09:11:35.612Z,10.27
2023-05-14T09:14:04.341Z,11.93
2023-05-14T09:16:33.046Z,6.85
2023-05-14T09:19:04.163Z,9.05
2023-05-14T09:21:33.591Z,9.57
2023-05-14T09:24:02.665Z,6.15
2023-05-14T09:26:34.479Z,8.57
2023-05-14T09:29:04.333Z,7.43
2023-05-14T09:31:33.969Z,7.60
2023-05-14T09:34:05.017Z,8.20
2023-05-14T09:36:35.657Z,8.32
2023-05-14T09:39:05.414Z,7.38
2023-05-14T09:41:33.434Z,7.90
2023-05-14T09:44:03.022Z,7.53
2023-05-14T09:46:32.331Z,6.88
2023-05-14T09:49:00.835Z,7.53
2023-05-14T09:51:33.293Z,8.50
2023-05-14T09:54:02.183Z,7.68
2023-05-14T09:56:30.882Z,6.93
2023-05-14T09:58:59.997Z,7.32
2023-05-14T10:01:30.055Z,8.50
2023-05-14T10:04:00.606Z,5.93
2023-05-14T10:06:32.198Z,7.15
2023-05-14T10:09:04.045Z,7.60
2023-05-14T10:11:34.422Z,6.32
2023-05-14T10:14:07.710Z,7.65
2023-05-14T10:16:39.548Z,8.45
2023-05-14T10:19:11.241Z,7.85
2023-05-14T10:21:42.122Z,8.18
2023-05-14T10:24:13.059Z,9.20
2023-05-14T10:26:42.678Z,6.72
2023-05-14T10:29:11.512Z,6.68
2023-05-14T10:31:49.995Z,6.20
2023-05-14T10:34:37.957Z,7.57
2023-05-14T10:37:07.670Z,6.57
2023-05-14T10:39:46.403Z,6.72
2023-05-14T10:42:18.396Z,8.18
2023-05-14T10:44:52.470Z,7.93
2023-05-14T10:47:21.461Z,9.35
2023-05-14T10:49:50.676Z,7.20
2023-05-14T10:52:22.660Z,7.88
2023-05-14T10:54:54.406Z,7.20
2023-05-14T10:57:24.756Z,5.60
2023-05-14T10:59:58.906Z,7.55
2023-05-14T11:02:30.376Z,6.75
2023-05-14T11:05:03.807Z,7.63
2023-05-14T11:07:33.867Z,7.32
2023-05-14T11:10:07.000Z,9.90
2023-05-14T11:12:36.770Z,6.80
2023-05-14T11:15:07.754Z,10.57
2023-05-14T11:17:37.107Z,13.82
2023-05-14T11:20:07.334Z,10.10
2023-05-14T11:22:35.666Z,6.25
2023-05-14T11:25:06.849Z,12.60
2023-05-14T11:27:36.012Z,24.30
2023-05-14T11:30:05.626Z,14.20
2023-05-14T11:32:36.117Z,10.80
2023-05-14T11:35:05.011Z,10.95
2023-05-14T11:37:32.970Z,9.88
2023-05-14T11:40:02.631Z,12.73
2023-05-14T11:42:32.988Z,15.20
2023-05-14T11:45:01.408Z,7.95
2023-05-14T11:47:31.062Z,13.20
2023-05-14T11:50:00.692Z,9.50
2023-05-14T11:52:29.198Z,11.18
2023-05-14T11:54:57.710Z,8.50
2023-05-14T11:57:26.435Z,8.35
2023-05-14T11:59:59.014Z,8.20
2023-05-14T12:02:29.176Z,7.55
2023-05-14T12:04:57.892Z,10.00
2023-05-14T12:07:30.884Z,7.65
2023-05-14T12:10:02.616Z,9.43
2023-05-14T12:12:36.776Z,6.97
2023-05-14T12:15:14.231Z,6.68
2023-05-14T12:17:42.365Z,7.78
2023-05-14T12:20:20.794Z,9.48
2023-05-14T12:22:49.097Z,13.85
2023-05-14T12:25:17.516Z,10.15
2023-05-14T12:27:46.718Z,6.20
2023-05-14T12:30:34.303Z,9.32
2023-05-14T12:33:02.619Z,5.60
2023-05-14T12:35:32.484Z,10.07
2023-05-14T12:38:00.706Z,9.70
2023-05-14T12:40:28.976Z,9.18
2023-05-14T12:42:57.109Z,8.60
2023-05-14T12:45:26.920Z,9.00
2023-05-14T12:47:56.183Z,9.10
2023-05-14T12:50:26.156Z,7.78
2023-05-14T12:52:54.817Z,9.40
2023-05-14T12:55:24.577Z,10.93
2023-05-14T12:57:52.815Z,8.88
2023-05-14T13:00:21.429Z,9.30
2023-05-14T13:02:51.418Z,8.70
2023-05-14T13:05:19.879Z,14.18
2023-05-14T13:07:47.934Z,9.25
2023-05-14T13:10:18.710Z,13.55
2023-05-14T13:12:47.468Z,12.05
2023-05-14T13:15:16.030Z,11.88
2023-05-14T13:17:44.472Z,13.18
2023-05-14T13:20:15.414Z,8.07
2023-05-14T13:22:43.767Z,9.98
2023-05-14T13:25:11.920Z,11.02
2023-05-14T13:27:41.126Z,10.10
2023-05-14T13:30:10.067Z,8.82
2023-05-14T13:32:40.764Z,11.40
2023-05-14T13:35:10.773Z,10.20
2023-05-14T13:37:41.090Z,15.05
2023-05-14T13:40:11.132Z,13.10
2023-05-14T13:42:40.756Z,10.10
2023-05-14T13:45:09.973Z,10.32
2023-05-14T13:47:38.884Z,10.90
2023-05-14T13:50:09.351Z,12.77
2023-05-14T13:52:39.148Z,11.02
2023-05-14T13:55:12.219Z,10.73
2023-05-14T13:57:41.887Z,10.75
2023-05-14T14:00:11.191Z,9.30
2023-05-14T14:02:40.132Z,9.35
2023-05-14T14:05:09.319Z,8.88
2023-05-14T14:07:37.653Z,9.73
2023-05-14T14:10:06.608Z,8.60
2023-05-14T14:12:36.750Z,11.43
2023-05-14T14:15:07.305Z,9.77
2023-05-14T14:17:36.930Z,9.30
2023-05-14T14:20:06.621Z,9.35
2023-05-14T14:22:34.898Z,8.95
2023-05-14T14:25:03.454Z,10.20
2023-05-14T14:27:34.107Z,10.77
2023-05-14T14:30:04.355Z,11.63
2023-05-14T14:32:33.580Z,11.02
2023-05-14T14:35:01.686Z,9.73
2023-05-14T14:37:29.858Z,12.85
2023-05-14T14:39:58.489Z,13.77
2023-05-14T14:42:26.733Z,9.70
2023-05-14T14:44:54.785Z,15.00
2023-05-14T14:47:24.692Z,14.48
2023-05-14T14:49:55.033Z,11.52
2023-05-14T14:52:23.523Z,16.80
2023-05-14T14:54:51.923Z,10.00
2023-05-14T14:57:20.189Z,10.05
2023-05-14T14:59:48.792Z,11.18
2023-05-14T15:02:17.266Z,7.28
2023-05-14T15:04:46.746Z,13.35
2023-05-14T15:07:17.523Z,11.32
2023-05-14T15:09:45.782Z,10.75
2023-05-14T15:12:14.293Z,7.63
2023-05-14T15:14:42.596Z,13.52
2023-05-14T15:17:11.115Z,13.02
2023-05-14T15:19:39.443Z,11.48
2023-05-14T15:22:08.854Z,12.23
2023-05-14T15:24:37.640Z,10.52
2023-05-14T15:27:06.108Z,9.43
2023-05-14T15:29:34.515Z,14.05
2023-05-14T15:32:03.622Z,16.00
2023-05-14T15:34:31.674Z,11.90
2023-05-14T15:36:59.855Z,10.32
2023-05-14T15:39:32.935Z,12.77
2023-05-14T15:42:01.509Z,8.13
2023-05-14T15:44:29.977Z,8.25
2023-05-14T15:46:58.240Z,10.23
2023-05-14T15:49:26.644Z,13.02
2023-05-14T15:51:55.838Z,10.68
2023-05-14T15:54:26.286Z,14.38
2023-05-14T15:56:57.192Z,11.35
2023-05-14T15:59:25.671Z,10.18
2023-05-14T16:01:53.893Z,12.13
2023-05-14T16:04:22.437Z,12.20
2023-05-14T16:06:50.705Z,10.90
2023-05-14T16:09:19.930Z,9.48
2023-05-14T16:11:48.850Z,9.35
2023-05-14T16:14:18.666Z,8.65
2023-05-14T16:16:47.364Z,8.27
2023-05-14T16:19:16.069Z,9.63
2023-05-14T16:21:45.054Z,9.55
2023-05-14T16:24:13.846Z,11.80
2023-05-14T16:36:09.050Z,8.10
2023-05-14T16:38:44.615Z,8.32
2023-05-14T16:41:21.687Z,10.48
2023-05-14T16:43:51.168Z,8.23
2023-05-14T16:46:20.363Z,7.80
2023-05-14T16:48:50.691Z,9.65
2023-05-14T16:51:20.342Z,7.85
2023-05-14T16:53:48.689Z,7.20
2023-05-14T16:56:17.036Z,7.57
2023-05-14T16:58:45.301Z,9.65
2023-05-14T17:01:13.841Z,10.13
2023-05-14T17:03:42.168Z,11.13
2023-05-14T17:06:11.468Z,12.85
2023-05-14T17:08:40.975Z,7.15
2023-05-14T17:11:09.738Z,7.35
2023-05-14T17:13:37.682Z,5.70
2023-05-14T17:16:05.986Z,8.63
2023-05-14T17:18:34.226Z,7.82
2023-05-14T17:21:03.424Z,6.50
2023-05-14T17:23:31.809Z,8.35
2023-05-14T17:26:01.458Z,7.20
2023-05-14T17:28:30.098Z,8.00
2023-05-14T17:30:58.474Z,6.43
2023-05-14T17:33:26.669Z,5.78
2023-05-14T17:35:54.892Z,6.68
2023-05-14T17:38:23.187Z,7.35
2023-05-14T17:40:51.511Z,6.18
2023-05-14T17:43:21.168Z,5.85
2023-05-14T17:45:54.560Z,5.78
2023-05-14T17:48:23.975Z,6.95
2023-05-14T17:50:55.889Z,6.10
2023-05-14T17:53:24.061Z,7.00
2023-05-14T17:55:52.503Z,7.93
2023-05-14T17:58:22.047Z,7.65
2023-05-14T18:00:50.832Z,6.75
2023-05-14T18:03:20.417Z,7.22
2023-05-14T18:05:48.627Z,7.05
2023-05-14T18:08:16.999Z,9.00
2023-05-14T18:10:45.597Z,7.20
2023-05-14T18:13:14.222Z,9.48
2023-05-14T18:19:26.391Z,5.22
2023-05-14T18:21:55.646Z,8.45
2023-05-14T18:24:23.935Z,5.80
2023-05-14T18:26:52.316Z,6.40
2023-05-14T18:29:20.657Z,5.53
2023-05-14T18:31:50.238Z,6.63
2023-05-14T18:34:18.500Z,7.32
2023-05-14T18:36:47.486Z,5.55
2023-05-14T18:39:15.723Z,9.13
2023-05-14T18:41:43.752Z,7.53
2023-05-14T18:44:11.922Z,5.20
2023-05-14T18:46:40.416Z,7.45
2023-05-14T18:49:09.850Z,6.15
2023-05-14T18:51:38.170Z,4.97
2023-05-14T18:54:06.290Z,6.18
2023-05-14T18:56:35.021Z,7.78
2023-05-14T18:59:04.382Z,5.90
2023-05-14T19:01:33.974Z,5.85
2023-05-14T19:04:04.585Z,6.40
2023-05-14T19:06:34.814Z,5.40
2023-05-14T19:09:02.931Z,5.00
2023-05-14T19:11:31.198Z,9.82
2023-05-14T19:14:00.048Z,8.95
2023-05-14T19:16:28.417Z,6.63
2023-05-14T19:18:56.547Z,5.32
2023-05-14T19:21:24.645Z,5.30
2023-05-14T19:23:55.204Z,5.72
2023-05-14T19:26:23.347Z,8.23
2023-05-14T19:28:52.786Z,6.65
2023-05-14T19:31:20.957Z,5.57
2023-05-14T19:33:49.089Z,6.25
2023-05-14T19:36:17.327Z,5.25
2023-05-14T19:38:45.738Z,4.35
2023-05-14T19:41:15.775Z,4.72
2023-05-14T19:43:43.781Z,5.22
2023-05-14T19:46:11.939Z,5.45
2023-05-14T19:48:41.191Z,6.15
2023-05-14T19:51:09.250Z,6.55
2023-05-14T19:54:44.966Z,5.13
2023-05-14T19:57:15.261Z,6.10
2023-05-14T19:59:44.537Z,7.15
2023-05-14T20:02:18.546Z,6.22
2023-05-14T20:09:36.866Z,4.68
2023-05-14T20:12:06.028Z,6.30
2023-05-14T20:14:36.002Z,7.35
2023-05-14T20:17:04.707Z,5.70
2023-05-14T20:19:33.473Z,6.57
2023-05-14T20:22:01.883Z,5.50
2023-05-14T20:24:30.138Z,6.93
2023-05-14T20:26:58.844Z,5.82
2023-05-14T20:29:27.300Z,8.68
2023-05-14T20:31:57.285Z,7.18
2023-05-14T20:34:25.701Z,7.30
2023-05-14T20:36:58.699Z,5.45
2023-05-14T20:39:27.299Z,6.72
2023-05-14T20:41:55.547Z,6.90
2023-05-14T20:44:23.714Z,8.48
2023-05-14T20:46:52.910Z,4.95
2023-05-14T20:49:22.658Z,6.35
2023-05-14T20:51:50.983Z,5.35
2023-05-14T20:54:19.400Z,7.10
2023-05-14T20:56:47.813Z,7.97
2023-05-14T20:59:16.249Z,6.32
2023-05-14T21:01:44.990Z,6.03
2023-05-14T21:04:13.831Z,7.85
2023-05-14T21:06:43.971Z,7.18
2023-05-14T21:09:12.654Z,5.38
2023-05-14T21:11:41.640Z,6.80
2023-05-14T21:14:10.086Z,8.70
2023-05-14T21:16:38.404Z,8.10
2023-05-14T21:19:07.210Z,6.95
2023-05-14T21:21:35.738Z,7.05
2023-05-14T21:24:06.212Z,6.53
2023-05-14T21:26:37.075Z,11.90
2023-05-14T21:29:05.362Z,13.55
2023-05-14T21:31:33.672Z,10.40
2023-05-14T21:34:02.634Z,7.60
2023-05-14T21:36:31.440Z,6.82
2023-05-14T21:38:59.801Z,7.03
2023-05-14T21:41:29.503Z,6.65
2023-05-14T21:43:57.973Z,6.57
2023-05-14T21:46:26.380Z,10.15
2023-05-14T21:48:54.487Z,6.95
2023-05-14T21:51:22.815Z,7.28
2023-05-14T21:53:51.416Z,7.07
2023-05-14T21:56:19.729Z,5.35
2023-05-14T21:58:49.459Z,9.15
2023-05-14T22:01:18.065Z,7.35
2023-05-14T22:03:46.494Z,5.25
2023-05-14T22:06:15.642Z,6.22
2023-05-14T22:08:43.832Z,7.43
2023-05-14T22:11:12.237Z,7.18
2023-05-14T22:13:41.203Z,7.47
2023-05-14T22:16:13.769Z,8.65
2023-05-14T22:18:42.733Z,7.05
2023-05-14T22:21:10.693Z,7.20
2023-05-14T22:23:39.489Z,10.00
2023-05-14T22:26:07.668Z,7.25
2023-05-14T22:28:36.835Z,9.18
2023-05-14T22:31:05.604Z,13.60
2023-05-14T22:33:35.419Z,10.63
2023-05-14T22:36:03.836Z,8.75
2023-05-14T22:38:32.452Z,10.80
2023-05-14T22:41:01.109Z,10.13
2023-05-14T22:43:30.646Z,10.07
2023-05-14T22:45:59.021Z,11.30
2023-05-14T22:48:28.195Z,9.70
2023-05-14T22:50:58.416Z,7.97
2023-05-14T22:53:26.757Z,9.18
2023-05-14T22:55:55.139Z,12.30
2023-05-14T22:58:23.636Z,10.57
2023-05-14T23:00:52.111Z,10.43
2023-05-14T23:03:20.818Z,11.10
2023-05-14T23:05:49.466Z,9.13
2023-05-14T23:08:19.182Z,9.95
2023-05-14T23:10:47.613Z,10.43
2023-05-14T23:13:15.754Z,8.40
2023-05-14T23:15:45.333Z,9.73
2023-05-14T23:18:14.128Z,8.55
2023-05-14T23:20:42.702Z,10.20
2023-05-14T23:23:10.917Z,9.23
2023-05-14T23:25:42.116Z,9.10
2023-05-14T23:28:10.909Z,8.60
2023-05-14T23:30:39.152Z,8.13
2023-05-14T23:33:07.409Z,8.88
2023-05-14T23:35:37.058Z,9.45
2023-05-14T23:38:05.736Z,9.45
2023-05-14T23:40:34.443Z,6.00
2023-05-14T23:43:03.942Z,7.72
2023-05-14T23:45:33.209Z,9.65
2023-05-14T23:48:03.101Z,7.68
2023-05-14T23:50:31.795Z,8.07
2023-05-14T23:53:00.322Z,11.07
2023-05-14T23:55:28.987Z,8.85
2023-05-14T23:57:57.391Z,7.45
